Port Angeles, WA

3:06 PM PDT on August 29, 2014 (GMT -0700)
Fairchild International | Change Station
CLOSE
Current Station
Airport
Location: Port Angeles,
Elevation: 289 ft
Nearby Weather Stations

Elev 289 ft 48.12 °N, 123.50 °W | Updated 13 minutes ago

Overcast
Overcast
65 °F
Feels Like 65 °F
N
8
Wind Variable Wind from NNW

Today
High -- | Low -- °F
--% Chance of Precip.
Yesterday
High -- | Low -- °F
Precip. -- in
6:27 AM 8:00 PM
Waxing Crescent, 17% visible
Pressure 29.98 in
Visibility 10.0 miles
Clouds Overcast 6000 ft
Dew Point 44 °F
Humidity 47%
Rainfall 0.00 in
Snow Depth Not available.
UV 2 out of 12
Pollen .80 out of 12
Air Quality Not available.
Flu Activity Not available.
METAR KCLM 292153Z AUTO 34007KT 10SM OVC060 18/07 A2998 RMK AO2 SLP152 T01830067 $

More Conditions Fewer Conditions

Pressure 29.98 in
Visibility 10.0 miles
Clouds Overcast 6000 ft
Dew Point 44 °F
Humidity 47%
Rainfall 0.00 in
Snow Depth Not available.
UV 2 out of 12
Pollen .80 out of 12
Air Quality Not available.
Flu Activity Not available.
METAR KCLM 292153Z AUTO 34007KT 10SM OVC060 18/07 A2998 RMK AO2 SLP152 T01830067 $

More Conditions Fewer Conditions

10-Day Weather Forecast

Almanac

Astronomy

Aug. 29, 2014 Rise Set
Actual Time 6:27 AM PDT 8:00 PM PDT
Civil Twilight 5:55 AM PDT 8:33 PM PDT
Nautical Twilight 5:15 AM PDT 9:12 PM PDT
Astronomical Twilight 4:32 AM PDT 9:55 PM PDT
Moon 10:43 AM PDT 9:39 PM PDT
Length of Visible Light 14h 38m
Length of Day
13h 32m
Tomorrow will be 3m 21s shorter.
Waxing Crescent, 17% of the Moon is Illuminated
Today
Waxing Crescent
Sep 2
First Quarter
Sep 8
Full
Sep 15
Last Quarter
Sep 24
New

Today's Extremes

State Highs State Lows

Community

WunderPhotos

Upload Photos

1,748,354 photos uploaded!

Nearby

Snow Depth

Station Depth Elevation
Dungeness 0 in 4100 ft
Mount Crag 0 in 4050 ft
Alpine Meadows 0 in 3500 ft
Rex River 0 in 4000 ft
Burnt Mountain 0 in 4200 ft

Earthquake Activity

City Distance Mag. Time & Date
No recent earthquake activity has been reported nearby.
Minimum magnitude displayed is 2.5.

Coastal Water Temperatures

Place Temperature
Port Angeles, WA 53.1 °F
Friday Harbor, WA 53.1 °F
Port Townsend, WA 53.1 °F
La Push, WA 48.9 °F

Nearby Weather Stations